createdAt,value
2018-03-27T16:14:52.390Z,6.20
2018-03-27T16:17:18.481Z,8.73
2018-03-27T16:19:44.572Z,8.73
2018-03-27T16:22:10.583Z,8.80
2018-03-27T16:24:36.621Z,9.60
2018-03-27T16:27:02.651Z,9.27
2018-03-27T16:29:29.074Z,9.30
2018-03-27T16:31:55.147Z,9.83
2018-03-27T16:34:21.155Z,9.33
2018-03-27T16:36:47.206Z,10.13
2018-03-27T16:39:13.282Z,10.50
2018-03-27T16:41:39.349Z,10.00
2018-03-27T16:44:05.375Z,10.00
2018-03-27T16:46:31.486Z,14.30
2018-03-27T16:48:58.080Z,12.10
2018-03-27T16:51:24.178Z,11.57
2018-03-27T16:53:50.234Z,11.37
2018-03-27T16:56:16.274Z,12.17
2018-03-27T16:58:42.317Z,12.03
2018-03-27T17:01:08.362Z,10.53
2018-03-27T17:03:34.389Z,8.67
2018-03-27T17:06:00.430Z,10.43
2018-03-27T17:08:26.458Z,9.60
2018-03-27T17:10:52.590Z,10.73
2018-03-27T17:13:18.642Z,8.13
2018-03-27T17:15:44.790Z,8.93
2018-03-27T17:18:10.787Z,8.50
2018-03-27T17:20:36.867Z,10.70
2018-03-27T17:23:03.646Z,11.30
2018-03-27T17:25:29.677Z,12.53
2018-03-27T17:27:56.071Z,9.97
2018-03-27T17:30:22.079Z,10.87
2018-03-27T17:32:48.118Z,11.97
2018-03-27T17:35:14.206Z,11.93
2018-03-27T17:37:40.250Z,9.33
2018-03-27T17:40:06.270Z,10.40
2018-03-27T17:42:32.646Z,9.97
2018-03-27T17:44:58.665Z,11.03
2018-03-27T17:47:24.814Z,8.70
2018-03-27T17:49:50.842Z,9.47
2018-03-27T17:52:17.201Z,9.80
2018-03-27T17:54:43.214Z,8.13
2018-03-27T17:57:09.228Z,8.90
2018-03-27T17:59:37.057Z,10.40
2018-03-27T18:02:03.083Z,8.90
2018-03-27T18:04:29.094Z,10.23
2018-03-27T18:06:55.154Z,9.30
2018-03-27T18:09:21.575Z,10.70
2018-03-27T18:11:47.630Z,9.87
2018-03-27T18:14:13.769Z,12.83
2018-03-27T18:16:39.795Z,9.93
2018-03-27T18:19:05.851Z,11.13
2018-03-27T18:21:31.875Z,10.87
2018-03-27T18:23:57.938Z,9.83
2018-03-27T18:26:23.998Z,9.63
2018-03-27T18:28:50.574Z,9.40
2018-03-27T18:31:16.618Z,11.23
2018-03-27T18:33:43.371Z,9.87
2018-03-27T18:36:09.382Z,9.13
2018-03-27T18:38:35.424Z,10.83
2018-03-27T18:41:01.735Z,9.57
2018-03-27T18:43:27.960Z,9.73
2018-03-27T18:45:53.970Z,10.77
2018-03-27T18:48:20.371Z,8.00
2018-03-27T18:50:46.438Z,9.80
2018-03-27T18:53:12.550Z,9.37
2018-03-27T18:55:38.683Z,11.07
2018-03-27T18:58:04.801Z,9.83
2018-03-27T19:00:30.850Z,9.17
2018-03-27T19:02:56.857Z,9.87
2018-03-27T19:05:22.897Z,13.43
2018-03-27T19:07:49.007Z,8.77
2018-03-27T19:10:15.015Z,10.33
2018-03-27T19:12:41.439Z,11.07
2018-03-27T19:15:07.526Z,10.40
2018-03-27T19:17:34.239Z,9.53
2018-03-27T19:20:00.553Z,12.40
2018-03-27T19:22:26.573Z,9.70
2018-03-27T19:24:52.642Z,7.83
2018-03-27T19:27:18.861Z,10.57
2018-03-27T19:29:45.470Z,9.27
2018-03-27T19:32:11.824Z,9.87
2018-03-27T19:34:37.910Z,11.57
2018-03-27T19:37:03.944Z,11.30
2018-03-27T19:39:29.952Z,9.53
2018-03-27T19:41:57.280Z,12.70
2018-03-27T19:44:23.394Z,13.60
2018-03-27T19:46:49.506Z,12.10
2018-03-27T19:49:15.729Z,13.93
2018-03-27T19:51:41.760Z,14.80
2018-03-27T19:54:08.377Z,12.47
2018-03-27T19:56:34.802Z,14.03
2018-03-27T19:59:00.835Z,12.60
2018-03-27T20:01:26.854Z,11.90
2018-03-27T20:03:52.905Z,13.97
2018-03-27T20:06:18.929Z,15.73
2018-03-27T20:08:45.159Z,11.87
2018-03-27T20:11:11.817Z,14.10
2018-03-27T20:13:37.817Z,12.43
2018-03-27T20:16:03.832Z,10.73
2018-03-27T20:18:29.869Z,13.07
2018-03-27T20:20:55.978Z,12.47
2018-03-27T20:23:21.983Z,12.83
2018-03-27T20:25:48.039Z,13.97
2018-03-27T20:28:14.167Z,13.93
2018-03-27T20:30:40.132Z,12.13
2018-03-27T20:33:06.250Z,13.47
2018-03-27T20:35:33.014Z,15.87
2018-03-27T20:37:59.046Z,14.00
2018-03-27T20:40:25.068Z,17.37
2018-03-27T20:42:51.101Z,18.97
2018-03-27T20:45:17.152Z,15.17
2018-03-27T20:47:43.183Z,20.70
2018-03-27T20:50:09.211Z,21.27
2018-03-27T20:52:35.204Z,21.87
2018-03-27T20:55:01.272Z,26.73
2018-03-27T20:57:27.307Z,22.10
2018-03-27T20:59:54.070Z,28.47
2018-03-27T21:02:20.173Z,43.17
2018-03-27T21:04:46.203Z,32.77
2018-03-27T21:07:13.295Z,21.70
2018-03-27T21:09:39.317Z,39.77
2018-03-27T21:12:05.344Z,31.50
2018-03-27T21:14:31.350Z,31.03
2018-03-27T21:16:57.374Z,36.70
2018-03-27T21:19:23.782Z,34.83
2018-03-27T21:21:50.557Z,40.43
2018-03-27T21:24:16.575Z,34.43
2018-03-27T21:26:43.210Z,59.20
2018-03-27T21:29:09.252Z,48.50
2018-03-27T21:31:35.326Z,47.13
2018-03-27T21:34:02.100Z,53.60
2018-03-27T21:36:28.144Z,53.23
2018-03-27T21:38:54.153Z,63.53
2018-03-27T21:41:20.162Z,36.27
2018-03-27T21:43:46.707Z,46.00
2018-03-27T21:46:12.801Z,42.70
2018-03-27T21:48:38.813Z,58.93
2018-03-27T21:51:04.882Z,63.37
2018-03-27T21:53:30.894Z,49.07
2018-03-27T21:55:56.947Z,52.80
2018-03-27T21:58:23.366Z,49.67
2018-03-27T22:00:49.390Z,106.23
2018-03-27T22:03:15.406Z,63.63
2018-03-27T22:05:41.418Z,69.23
2018-03-27T22:08:07.734Z,46.80
2018-03-27T22:10:34.520Z,51.73
2018-03-27T22:13:00.522Z,51.63
2018-03-27T22:15:26.558Z,57.27
2018-03-27T22:17:52.679Z,62.60
2018-03-27T22:20:18.742Z,64.10
2018-03-27T22:22:44.855Z,56.90
2018-03-27T22:25:10.882Z,67.97
2018-03-27T22:27:36.906Z,50.33
2018-03-27T22:30:02.978Z,42.60
2018-03-27T22:32:29.029Z,54.50
2018-03-27T22:34:55.094Z,47.90
2018-03-27T22:37:21.090Z,47.90
2018-03-27T22:39:47.106Z,51.60
2018-03-27T22:42:13.398Z,48.67
2018-03-27T22:44:39.450Z,36.70
2018-03-27T22:47:05.458Z,59.67
2018-03-27T22:49:31.521Z,69.77
2018-03-27T22:51:57.520Z,65.23
2018-03-27T22:54:23.537Z,68.30
2018-03-27T22:56:49.550Z,74.87
2018-03-27T22:59:15.570Z,75.67
2018-03-27T23:01:42.019Z,87.63
2018-03-27T23:04:08.062Z,72.53
2018-03-27T23:06:34.066Z,57.03
2018-03-27T23:09:00.087Z,64.30
2018-03-27T23:14:23.077Z,69.90
2018-03-27T23:16:49.082Z,67.23
2018-03-27T23:19:15.085Z,72.87
2018-03-27T23:21:41.112Z,96.10
2018-03-27T23:24:07.122Z,107.33
2018-03-27T23:26:34.201Z,90.87
2018-03-27T23:29:00.227Z,99.83
2018-03-27T23:31:26.227Z,84.67
2018-03-27T23:33:52.360Z,87.90
2018-03-27T23:36:18.406Z,67.57
2018-03-27T23:38:44.503Z,83.27
2018-03-27T23:41:10.535Z,75.60
2018-03-27T23:43:36.564Z,68.23
2018-03-27T23:46:02.602Z,86.17
2018-03-27T23:48:28.652Z,114.57
2018-03-27T23:50:54.715Z,98.17
2018-03-27T23:53:20.714Z,93.30
2018-03-27T23:58:19.571Z,64.83
